»·PEaware :: N362LP KSNA-KBUR

N362LP :: KSNA-KBUR

FLIGHT INFORMATION

Flight Status: Arrived
Operator: Privately registered:
United States
More flights under this callsign
Pilot: Chad L. (27474)
Aircraft: MOONEY M-20 201 202 205 220 ATS MSE
(M20P)
More flights by this aircraft type
Origin: KSNA John Wayne-Orange Co
United States
Destination: KBUR Bob Hope-Burbank
United States
More flights between these airports :: More routes between these airports
Route: SLI V23 POPPR SMO125R SMO311R SILEX
File this flight plan on PilotEdge
Remarks: TEC route CSTP1 to ILS RWY 8
Altitude:
(Current/Filed)
4,000ft
Speed:
(Current/Filed)
170kts
Departed: 09-Feb-20 09:20 PM
Arrived: 09-Feb-20 09:56 PM
Distance/Time
Traveled:
40nm/0:36
Distance/Time
To Go:
Arrived

Flight Plot

Page will automatically refresh every two minutes.


Map Options




Map Legend


Flown Route
Filed Route
Departure Airport
Arrival Airport
Navaid (VOR, NDB)
Fix

Horizontal Profiles

Position Reports

Time Latitude Longitude Heading Altitude Ground
Speed
09-Feb-20 20:57 33.671608 -117.867756 207 58ft 0kts
09-Feb-20 20:58 33.671608 -117.867756 207 58ft 0kts
09-Feb-20 20:59 33.671608 -117.867756 207 58ft 0kts
09-Feb-20 21:00 33.671608 -117.867756 207 58ft 0kts
09-Feb-20 21:01 33.671608 -117.867756 207 58ft 0kts
09-Feb-20 21:02 33.671608 -117.867756 207 58ft 0kts
09-Feb-20 21:03 33.671608 -117.867756 207 58ft 0kts
09-Feb-20 21:04 33.671608 -117.867756 207 58ft 0kts
09-Feb-20 21:05 33.671608 -117.867756 207 58ft 0kts
09-Feb-20 21:06 33.671608 -117.867756 207 58ft 0kts
09-Feb-20 21:07 33.671608 -117.867756 207 58ft 0kts
09-Feb-20 21:08 33.671608 -117.867756 207 58ft 0kts
09-Feb-20 21:09 33.671608 -117.867756 207 58ft 0kts
09-Feb-20 21:10 33.671608 -117.867756 207 58ft 0kts
09-Feb-20 21:11 33.671608 -117.867756 207 58ft 0kts
09-Feb-20 21:12 33.671388 -117.868194 262 58ft 8kts
09-Feb-20 21:13 33.672836 -117.867605 41 58ft 12kts
09-Feb-20 21:14 33.674340 -117.866931 26 58ft 11kts
09-Feb-20 21:15 33.677955 -117.864648 24 58ft 17kts
09-Feb-20 21:16 33.678163 -117.863868 210 58ft 12kts
09-Feb-20 21:17 33.674344 -117.866298 206 58ft 16kts
09-Feb-20 21:18 33.673852 -117.867485 297 58ft 3kts
09-Feb-20 21:19 33.687693 -117.861528 355 596ft 91kts
09-Feb-20 21:20 33.690895 -117.889183 251 1946ft 116kts
09-Feb-20 21:21 33.677046 -117.941627 251 2220ft 181kts
09-Feb-20 21:22 33.663540 -117.991676 251 3954ft 155kts
09-Feb-20 21:23 33.646457 -118.049945 245 3972ft 202kts
09-Feb-20 21:24 33.623998 -118.107390 281 3971ft 203kts
09-Feb-20 21:25 33.664457 -118.139564 344 3976ft 187kts
09-Feb-20 21:26 33.710495 -118.170047 331 3977ft 191kts
09-Feb-20 21:27 33.753625 -118.207831 328 3982ft 192kts
09-Feb-20 21:28 33.796024 -118.247923 326 3985ft 193kts
09-Feb-20 21:29 33.838030 -118.288529 326 3988ft 192kts
09-Feb-20 21:30 33.879872 -118.329253 326 3991ft 192kts
09-Feb-20 21:31 33.921412 -118.369846 326 3992ft 184kts
09-Feb-20 21:32 33.959181 -118.406734 327 4008ft 167kts
09-Feb-20 21:33 33.996683 -118.443362 325 3995ft 184kts
09-Feb-20 21:35 34.033351 -118.490534 312 3986ft 200kts
09-Feb-20 21:36 34.065982 -118.543236 312 3982ft 195kts
09-Feb-20 21:37 34.098699 -118.595994 312 4003ft 195kts
09-Feb-20 21:38 34.130711 -118.648390 311 3982ft 196kts
09-Feb-20 21:39 34.162320 -118.699433 311 4010ft 191kts
09-Feb-20 21:40 34.194611 -118.751802 311 4000ft 195kts
09-Feb-20 21:41 34.230381 -118.795554 5 3958ft 163kts
09-Feb-20 21:42 34.233151 -118.765841 120 3984ft 116kts
09-Feb-20 21:43 34.211883 -118.734401 122 4002ft 119kts
09-Feb-20 21:44 34.200924 -118.704276 82 3988ft 89kts
09-Feb-20 21:45 34.201347 -118.671188 83 3736ft 113kts
09-Feb-20 21:46 34.201336 -118.637479 82 3590ft 98kts
09-Feb-20 21:47 34.200688 -118.604029 84 3571ft 92kts
09-Feb-20 21:48 34.200336 -118.570829 86 3588ft 101kts
09-Feb-20 21:49 34.200197 -118.534933 86 3396ft 121kts
09-Feb-20 21:50 34.199494 -118.500719 87 2896ft 95kts
09-Feb-20 21:51 34.199008 -118.467634 86 2381ft 97kts
09-Feb-20 21:52 34.198785 -118.434982 84 1841ft 101kts
09-Feb-20 21:53 34.198417 -118.407759 89 1397ft 62kts
09-Feb-20 21:54 34.198149 -118.387357 87 1078ft 59kts
09-Feb-20 21:55 34.197513 -118.368579 87 790ft 51kts
09-Feb-20 21:56 34.198135 -118.357999 3 715ft 14kts
09-Feb-20 21:57 34.198525 -118.357985 0 716ft 0kts
09-Feb-20 21:57 34.198805 -118.358183 302 717ft 9kts

Navigation Log

Ident Type
Flight plan parsing failed, navigation log unavailable